sensor_id;sensor_type;location;lat;lon;timestamp;P1;durP1;ratioP1;P2;durP2;ratioP2
12482;SDS011;6306;47.134;15.344;2023-02-28T00:02:18;7.50;;;5.13;;
12482;SDS011;6306;47.134;15.344;2023-02-28T00:04:44;5.80;;;4.07;;
12482;SDS011;6306;47.134;15.344;2023-02-28T00:07:17;4.40;;;4.00;;
12482;SDS011;6306;47.134;15.344;2023-02-28T00:09:44;5.87;;;4.97;;
12482;SDS011;6306;47.134;15.344;2023-02-28T00:12:10;5.33;;;4.63;;
12482;SDS011;6306;47.134;15.344;2023-02-28T00:14:36;5.07;;;4.17;;
12482;SDS011;6306;47.134;15.344;2023-02-28T00:17:02;6.30;;;4.50;;
12482;SDS011;6306;47.134;15.344;2023-02-28T00:19:28;5.60;;;4.60;;
12482;SDS011;6306;47.134;15.344;2023-02-28T00:21:54;4.23;;;3.83;;
12482;SDS011;6306;47.134;15.344;2023-02-28T00:24:20;5.93;;;4.57;;
12482;SDS011;6306;47.134;15.344;2023-02-28T00:26:46;4.17;;;3.20;;
12482;SDS011;6306;47.134;15.344;2023-02-28T00:29:12;4.83;;;4.43;;
12482;SDS011;6306;47.134;15.344;2023-02-28T00:31:38;4.33;;;3.80;;
12482;SDS011;6306;47.134;15.344;2023-02-28T00:34:04;6.07;;;4.00;;
12482;SDS011;6306;47.134;15.344;2023-02-28T00:36:30;3.97;;;3.67;;
12482;SDS011;6306;47.134;15.344;2023-02-28T00:38:56;6.10;;;4.20;;
12482;SDS011;6306;47.134;15.344;2023-02-28T00:41:22;4.73;;;3.80;;
12482;SDS011;6306;47.134;15.344;2023-02-28T00:43:48;4.20;;;3.80;;
12482;SDS011;6306;47.134;15.344;2023-02-28T00:46:14;3.93;;;3.40;;
12482;SDS011;6306;47.134;15.344;2023-02-28T00:48:40;5.80;;;3.80;;
12482;SDS011;6306;47.134;15.344;2023-02-28T00:51:06;5.33;;;4.10;;
12482;SDS011;6306;47.134;15.344;2023-02-28T00:53:32;6.30;;;4.00;;
12482;SDS011;6306;47.134;15.344;2023-02-28T00:55:58;4.23;;;3.23;;
12482;SDS011;6306;47.134;15.344;2023-02-28T00:58:25;4.37;;;3.60;;
12482;SDS011;6306;47.134;15.344;2023-02-28T01:00:51;5.00;;;3.93;;
12482;SDS011;6306;47.134;15.344;2023-02-28T01:03:18;4.73;;;4.17;;
12482;SDS011;6306;47.134;15.344;2023-02-28T01:05:44;5.43;;;4.30;;
12482;SDS011;6306;47.134;15.344;2023-02-28T01:08:10;7.70;;;3.97;;
12482;SDS011;6306;47.134;15.344;2023-02-28T01:10:36;5.20;;;3.63;;
12482;SDS011;6306;47.134;15.344;2023-02-28T01:13:03;7.63;;;4.70;;
12482;SDS011;6306;47.134;15.344;2023-02-28T01:15:29;5.27;;;4.27;;
12482;SDS011;6306;47.134;15.344;2023-02-28T01:17:57;4.40;;;3.93;;
12482;SDS011;6306;47.134;15.344;2023-02-28T01:20:23;7.23;;;4.57;;
12482;SDS011;6306;47.134;15.344;2023-02-28T01:22:49;8.33;;;3.50;;
12482;SDS011;6306;47.134;15.344;2023-02-28T01:25:15;4.80;;;4.10;;
12482;SDS011;6306;47.134;15.344;2023-02-28T01:27:41;4.10;;;3.70;;
12482;SDS011;6306;47.134;15.344;2023-02-28T01:30:08;5.10;;;4.40;;
12482;SDS011;6306;47.134;15.344;2023-02-28T01:32:34;4.50;;;4.10;;
12482;SDS011;6306;47.134;15.344;2023-02-28T01:35:00;4.33;;;2.87;;
12482;SDS011;6306;47.134;15.344;2023-02-28T01:37:27;4.60;;;3.40;;
12482;SDS011;6306;47.134;15.344;2023-02-28T01:39:53;6.10;;;3.97;;
12482;SDS011;6306;47.134;15.344;2023-02-28T01:42:19;3.20;;;2.83;;
12482;SDS011;6306;47.134;15.344;2023-02-28T01:44:56;6.27;;;4.83;;
12482;SDS011;6306;47.134;15.344;2023-02-28T01:47:23;5.10;;;4.10;;
12482;SDS011;6306;47.134;15.344;2023-02-28T01:49:51;3.73;;;3.37;;
12482;SDS011;6306;47.134;15.344;2023-02-28T01:52:17;6.83;;;4.30;;
12482;SDS011;6306;47.134;15.344;2023-02-28T01:54:47;4.27;;;3.77;;
12482;SDS011;6306;47.134;15.344;2023-02-28T01:57:16;3.80;;;3.40;;
12482;SDS011;6306;47.134;15.344;2023-02-28T01:59:44;6.83;;;4.43;;
12482;SDS011;6306;47.134;15.344;2023-02-28T02:02:11;4.60;;;3.33;;
12482;SDS011;6306;47.134;15.344;2023-02-28T02:04:39;5.97;;;4.50;;
12482;SDS011;6306;47.134;15.344;2023-02-28T02:07:05;8.23;;;4.27;;
12482;SDS011;6306;47.134;15.344;2023-02-28T02:09:32;6.17;;;4.73;;
12482;SDS011;6306;47.134;15.344;2023-02-28T02:11:58;6.77;;;4.20;;
12482;SDS011;6306;47.134;15.344;2023-02-28T02:17:04;4.90;;;4.50;;
12482;SDS011;6306;47.134;15.344;2023-02-28T02:25:14;5.43;;;4.40;;
12482;SDS011;6306;47.134;15.344;2023-02-28T02:32:58;10.60;;;5.07;;
12482;SDS011;6306;47.134;15.344;2023-02-28T02:35:31;4.83;;;4.43;;
12482;SDS011;6306;47.134;15.344;2023-02-28T02:40:38;4.90;;;4.50;;
12482;SDS011;6306;47.134;15.344;2023-02-28T02:48:01;4.27;;;3.87;;
12482;SDS011;6306;47.134;15.344;2023-02-28T02:50:33;5.80;;;5.27;;
12482;SDS011;6306;47.134;15.344;2023-02-28T02:53:01;5.20;;;4.80;;
12482;SDS011;6306;47.134;15.344;2023-02-28T02:55:28;4.07;;;3.67;;
12482;SDS011;6306;47.134;15.344;2023-02-28T02:57:57;4.50;;;3.87;;
12482;SDS011;6306;47.134;15.344;2023-02-28T03:00:30;4.13;;;3.73;;
12482;SDS011;6306;47.134;15.344;2023-02-28T03:02:57;3.83;;;3.40;;
12482;SDS011;6306;47.134;15.344;2023-02-28T03:05:25;4.50;;;4.10;;
12482;SDS011;6306;47.134;15.344;2023-02-28T03:07:52;4.90;;;4.40;;
12482;SDS011;6306;47.134;15.344;2023-02-28T03:13:18;4.63;;;4.27;;
12482;SDS011;6306;47.134;15.344;2023-02-28T03:21:17;6.80;;;4.57;;
12482;SDS011;6306;47.134;15.344;2023-02-28T03:23:48;5.73;;;4.53;;
12482;SDS011;6306;47.134;15.344;2023-02-28T03:26:18;7.50;;;5.77;;
12482;SDS011;6306;47.134;15.344;2023-02-28T03:33:39;6.77;;;5.20;;
12482;SDS011;6306;47.134;15.344;2023-02-28T03:36:15;7.93;;;5.60;;
12482;SDS011;6306;47.134;15.344;2023-02-28T03:39:04;6.17;;;5.57;;
12482;SDS011;6306;47.134;15.344;2023-02-28T03:41:36;5.07;;;4.60;;
12482;SDS011;6306;47.134;15.344;2023-02-28T03:44:05;5.83;;;4.70;;
12482;SDS011;6306;47.134;15.344;2023-02-28T03:46:34;6.03;;;4.93;;
12482;SDS011;6306;47.134;15.344;2023-02-28T03:49:02;7.13;;;4.70;;
12482;SDS011;6306;47.134;15.344;2023-02-28T03:51:30;6.63;;;4.30;;
12482;SDS011;6306;47.134;15.344;2023-02-28T03:53:58;7.00;;;4.80;;
12482;SDS011;6306;47.134;15.344;2023-02-28T03:56:31;4.83;;;4.43;;
12482;SDS011;6306;47.134;15.344;2023-02-28T03:59:01;5.57;;;5.03;;
12482;SDS011;6306;47.134;15.344;2023-02-28T04:01:40;4.73;;;4.20;;
12482;SDS011;6306;47.134;15.344;2023-02-28T04:04:08;5.63;;;5.00;;
12482;SDS011;6306;47.134;15.344;2023-02-28T04:06:34;6.27;;;4.43;;
12482;SDS011;6306;47.134;15.344;2023-02-28T04:09:01;6.60;;;4.90;;
12482;SDS011;6306;47.134;15.344;2023-02-28T04:11:44;7.17;;;4.73;;
12482;SDS011;6306;47.134;15.344;2023-02-28T04:14:11;5.93;;;4.53;;
12482;SDS011;6306;47.134;15.344;2023-02-28T04:16:39;6.63;;;4.80;;
12482;SDS011;6306;47.134;15.344;2023-02-28T04:19:05;4.43;;;4.03;;
12482;SDS011;6306;47.134;15.344;2023-02-28T04:21:35;6.63;;;5.57;;
12482;SDS011;6306;47.134;15.344;2023-02-28T04:24:04;5.27;;;4.70;;
12482;SDS011;6306;47.134;15.344;2023-02-28T04:26:30;6.60;;;5.10;;
12482;SDS011;6306;47.134;15.344;2023-02-28T04:28:56;4.93;;;4.53;;
12482;SDS011;6306;47.134;15.344;2023-02-28T04:31:22;7.70;;;5.03;;
12482;SDS011;6306;47.134;15.344;2023-02-28T04:33:49;5.20;;;4.77;;
12482;SDS011;6306;47.134;15.344;2023-02-28T04:36:15;6.17;;;5.43;;
12482;SDS011;6306;47.134;15.344;2023-02-28T04:38:43;7.33;;;4.83;;
12482;SDS011;6306;47.134;15.344;2023-02-28T04:41:09;5.83;;;4.70;;
12482;SDS011;6306;47.134;15.344;2023-02-28T04:43:35;5.20;;;4.37;;
12482;SDS011;6306;47.134;15.344;2023-02-28T04:46:02;6.33;;;5.63;;
12482;SDS011;6306;47.134;15.344;2023-02-28T04:48:29;5.63;;;4.60;;
12482;SDS011;6306;47.134;15.344;2023-02-28T04:50:59;6.10;;;5.07;;
12482;SDS011;6306;47.134;15.344;2023-02-28T04:53:25;4.73;;;4.30;;
12482;SDS011;6306;47.134;15.344;2023-02-28T04:55:52;9.53;;;6.50;;
12482;SDS011;6306;47.134;15.344;2023-02-28T04:58:18;8.27;;;7.40;;
12482;SDS011;6306;47.134;15.344;2023-02-28T05:00:47;7.43;;;6.63;;
12482;SDS011;6306;47.134;15.344;2023-02-28T05:03:13;8.20;;;5.73;;
12482;SDS011;6306;47.134;15.344;2023-02-28T05:05:39;6.40;;;5.80;;
12482;SDS011;6306;47.134;15.344;2023-02-28T05:08:05;8.40;;;5.63;;
12482;SDS011;6306;47.134;15.344;2023-02-28T05:10:31;5.50;;;4.73;;
12482;SDS011;6306;47.134;15.344;2023-02-28T05:12:57;5.47;;;5.00;;
12482;SDS011;6306;47.134;15.344;2023-02-28T05:15:23;5.73;;;5.13;;
12482;SDS011;6306;47.134;15.344;2023-02-28T05:17:50;6.10;;;5.20;;
12482;SDS011;6306;47.134;15.344;2023-02-28T05:20:16;8.03;;;6.03;;
12482;SDS011;6306;47.134;15.344;2023-02-28T05:22:42;4.17;;;3.70;;
12482;SDS011;6306;47.134;15.344;2023-02-28T05:25:12;7.77;;;6.13;;
12482;SDS011;6306;47.134;15.344;2023-02-28T05:27:40;6.17;;;5.50;;
12482;SDS011;6306;47.134;15.344;2023-02-28T05:30:06;6.90;;;5.83;;
12482;SDS011;6306;47.134;15.344;2023-02-28T05:32:35;6.63;;;5.30;;
12482;SDS011;6306;47.134;15.344;2023-02-28T05:35:01;6.80;;;5.13;;
12482;SDS011;6306;47.134;15.344;2023-02-28T05:37:27;5.00;;;4.33;;
12482;SDS011;6306;47.134;15.344;2023-02-28T05:39:53;5.10;;;4.60;;
12482;SDS011;6306;47.134;15.344;2023-02-28T05:42:19;5.90;;;4.97;;
12482;SDS011;6306;47.134;15.344;2023-02-28T05:44:45;8.03;;;4.53;;
12482;SDS011;6306;47.134;15.344;2023-02-28T05:47:11;4.93;;;4.47;;
12482;SDS011;6306;47.134;15.344;2023-02-28T05:49:40;5.17;;;4.67;;
12482;SDS011;6306;47.134;15.344;2023-02-28T05:52:06;7.53;;;5.43;;
12482;SDS011;6306;47.134;15.344;2023-02-28T05:54:32;7.07;;;5.03;;
12482;SDS011;6306;47.134;15.344;2023-02-28T05:56:58;6.57;;;5.17;;
12482;SDS011;6306;47.134;15.344;2023-02-28T05:59:24;5.83;;;4.60;;
12482;SDS011;6306;47.134;15.344;2023-02-28T06:01:50;12.60;;;7.57;;
12482;SDS011;6306;47.134;15.344;2023-02-28T06:04:19;14.03;;;8.20;;
12482;SDS011;6306;47.134;15.344;2023-02-28T06:06:48;17.03;;;7.63;;
12482;SDS011;6306;47.134;15.344;2023-02-28T06:09:15;16.10;;;8.57;;
12482;SDS011;6306;47.134;15.344;2023-02-28T06:11:41;12.17;;;7.87;;
12482;SDS011;6306;47.134;15.344;2023-02-28T06:14:07;15.17;;;6.57;;
12482;SDS011;6306;47.134;15.344;2023-02-28T06:16:34;9.30;;;5.20;;
12482;SDS011;6306;47.134;15.344;2023-02-28T06:19:01;9.77;;;5.67;;
12482;SDS011;6306;47.134;15.344;2023-02-28T06:21:27;6.80;;;5.87;;
12482;SDS011;6306;47.134;15.344;2023-02-28T06:23:53;6.93;;;5.67;;
12482;SDS011;6306;47.134;15.344;2023-02-28T06:26:20;8.80;;;5.90;;
12482;SDS011;6306;47.134;15.344;2023-02-28T06:28:46;10.27;;;5.47;;
12482;SDS011;6306;47.134;15.344;2023-02-28T06:31:13;8.77;;;5.93;;
12482;SDS011;6306;47.134;15.344;2023-02-28T06:33:40;8.23;;;5.97;;
12482;SDS011;6306;47.134;15.344;2023-02-28T06:36:07;8.50;;;6.70;;
12482;SDS011;6306;47.134;15.344;2023-02-28T06:38:33;6.17;;;5.40;;
12482;SDS011;6306;47.134;15.344;2023-02-28T06:40:59;8.53;;;6.30;;
12482;SDS011;6306;47.134;15.344;2023-02-28T06:43:29;9.47;;;6.53;;
12482;SDS011;6306;47.134;15.344;2023-02-28T06:45:56;9.87;;;5.87;;
12482;SDS011;6306;47.134;15.344;2023-02-28T06:48:22;10.67;;;7.27;;
12482;SDS011;6306;47.134;15.344;2023-02-28T06:50:48;8.00;;;6.00;;
12482;SDS011;6306;47.134;15.344;2023-02-28T06:53:14;8.23;;;5.63;;
12482;SDS011;6306;47.134;15.344;2023-02-28T06:55:40;8.50;;;6.00;;
12482;SDS011;6306;47.134;15.344;2023-02-28T06:58:06;9.80;;;5.93;;
12482;SDS011;6306;47.134;15.344;2023-02-28T07:00:40;6.77;;;5.37;;
12482;SDS011;6306;47.134;15.344;2023-02-28T07:03:06;13.90;;;8.57;;
12482;SDS011;6306;47.134;15.344;2023-02-28T07:05:34;10.27;;;6.30;;
12482;SDS011;6306;47.134;15.344;2023-02-28T07:08:00;8.20;;;6.67;;
12482;SDS011;6306;47.134;15.344;2023-02-28T07:10:26;9.17;;;6.43;;
12482;SDS011;6306;47.134;15.344;2023-02-28T07:12:52;9.23;;;7.17;;
12482;SDS011;6306;47.134;15.344;2023-02-28T07:15:18;8.30;;;6.77;;
12482;SDS011;6306;47.134;15.344;2023-02-28T07:17:44;8.57;;;6.77;;
12482;SDS011;6306;47.134;15.344;2023-02-28T07:20:10;12.17;;;7.70;;
12482;SDS011;6306;47.134;15.344;2023-02-28T07:22:36;10.97;;;7.87;;
12482;SDS011;6306;47.134;15.344;2023-02-28T07:25:03;13.43;;;8.40;;
12482;SDS011;6306;47.134;15.344;2023-02-28T07:27:30;11.30;;;6.50;;
12482;SDS011;6306;47.134;15.344;2023-02-28T07:29:56;8.93;;;6.70;;
12482;SDS011;6306;47.134;15.344;2023-02-28T07:32:22;9.70;;;7.50;;
12482;SDS011;6306;47.134;15.344;2023-02-28T07:34:48;9.77;;;6.80;;
12482;SDS011;6306;47.134;15.344;2023-02-28T07:37:14;9.80;;;7.27;;
12482;SDS011;6306;47.134;15.344;2023-02-28T07:39:40;11.23;;;7.60;;
12482;SDS011;6306;47.134;15.344;2023-02-28T07:42:07;7.90;;;6.27;;
12482;SDS011;6306;47.134;15.344;2023-02-28T07:44:36;7.10;;;6.37;;
12482;SDS011;6306;47.134;15.344;2023-02-28T07:47:05;10.80;;;7.17;;
12482;SDS011;6306;47.134;15.344;2023-02-28T07:49:32;13.30;;;8.07;;
12482;SDS011;6306;47.134;15.344;2023-02-28T07:51:58;10.40;;;7.40;;
12482;SDS011;6306;47.134;15.344;2023-02-28T07:54:24;9.00;;;6.83;;
12482;SDS011;6306;47.134;15.344;2023-02-28T07:56:50;9.73;;;7.37;;
12482;SDS011;6306;47.134;15.344;2023-02-28T07:59:16;9.63;;;7.33;;
12482;SDS011;6306;47.134;15.344;2023-02-28T08:01:42;8.80;;;6.30;;
12482;SDS011;6306;47.134;15.344;2023-02-28T08:04:09;7.50;;;6.73;;
12482;SDS011;6306;47.134;15.344;2023-02-28T08:06:35;13.17;;;6.67;;
12482;SDS011;6306;47.134;15.344;2023-02-28T08:09:01;8.83;;;6.77;;
12482;SDS011;6306;47.134;15.344;2023-02-28T08:11:27;8.33;;;6.93;;
12482;SDS011;6306;47.134;15.344;2023-02-28T08:13:54;6.80;;;5.90;;
12482;SDS011;6306;47.134;15.344;2023-02-28T08:16:20;9.77;;;6.00;;
12482;SDS011;6306;47.134;15.344;2023-02-28T08:18:48;14.53;;;9.93;;
12482;SDS011;6306;47.134;15.344;2023-02-28T08:21:14;14.67;;;8.13;;
12482;SDS011;6306;47.134;15.344;2023-02-28T08:23:40;15.13;;;7.90;;
12482;SDS011;6306;47.134;15.344;2023-02-28T08:26:06;10.93;;;7.63;;
12482;SDS011;6306;47.134;15.344;2023-02-28T08:28:32;7.80;;;6.17;;
12482;SDS011;6306;47.134;15.344;2023-02-28T08:30:58;10.83;;;8.27;;
12482;SDS011;6306;47.134;15.344;2023-02-28T08:33:25;16.30;;;9.23;;
12482;SDS011;6306;47.134;15.344;2023-02-28T08:35:53;14.30;;;8.17;;
12482;SDS011;6306;47.134;15.344;2023-02-28T08:38:19;11.07;;;7.77;;
12482;SDS011;6306;47.134;15.344;2023-02-28T08:40:45;9.73;;;6.80;;
12482;SDS011;6306;47.134;15.344;2023-02-28T08:43:11;11.97;;;7.60;;
12482;SDS011;6306;47.134;15.344;2023-02-28T08:45:37;15.10;;;7.77;;
12482;SDS011;6306;47.134;15.344;2023-02-28T08:48:03;12.30;;;7.00;;
12482;SDS011;6306;47.134;15.344;2023-02-28T08:50:29;8.73;;;7.23;;
12482;SDS011;6306;47.134;15.344;2023-02-28T08:52:55;13.83;;;7.70;;
12482;SDS011;6306;47.134;15.344;2023-02-28T08:55:22;25.27;;;7.70;;
12482;SDS011;6306;47.134;15.344;2023-02-28T08:57:48;10.87;;;7.70;;
12482;SDS011;6306;47.134;15.344;2023-02-28T09:00:14;11.93;;;7.93;;
12482;SDS011;6306;47.134;15.344;2023-02-28T09:02:40;13.30;;;8.70;;
12482;SDS011;6306;47.134;15.344;2023-02-28T09:05:08;10.83;;;7.30;;
12482;SDS011;6306;47.134;15.344;2023-02-28T09:07:34;15.73;;;7.50;;
12482;SDS011;6306;47.134;15.344;2023-02-28T09:10:00;8.30;;;6.73;;
12482;SDS011;6306;47.134;15.344;2023-02-28T09:12:27;10.70;;;6.60;;
12482;SDS011;6306;47.134;15.344;2023-02-28T09:14:53;9.53;;;7.40;;
12482;SDS011;6306;47.134;15.344;2023-02-28T09:17:20;9.43;;;8.10;;
12482;SDS011;6306;47.134;15.344;2023-02-28T09:19:47;14.10;;;7.27;;
12482;SDS011;6306;47.134;15.344;2023-02-28T09:22:14;12.70;;;7.50;;
12482;SDS011;6306;47.134;15.344;2023-02-28T09:24:40;10.00;;;7.40;;
12482;SDS011;6306;47.134;15.344;2023-02-28T09:27:06;10.80;;;7.80;;
12482;SDS011;6306;47.134;15.344;2023-02-28T09:29:33;13.17;;;7.10;;
12482;SDS011;6306;47.134;15.344;2023-02-28T09:31:59;10.40;;;7.10;;
12482;SDS011;6306;47.134;15.344;2023-02-28T09:34:26;9.57;;;7.70;;
12482;SDS011;6306;47.134;15.344;2023-02-28T09:36:52;11.80;;;8.00;;
12482;SDS011;6306;47.134;15.344;2023-02-28T09:39:20;9.50;;;7.30;;
12482;SDS011;6306;47.134;15.344;2023-02-28T09:41:47;9.47;;;7.40;;
12482;SDS011;6306;47.134;15.344;2023-02-28T09:44:23;9.50;;;7.60;;
12482;SDS011;6306;47.134;15.344;2023-02-28T09:46:51;13.43;;;8.33;;
12482;SDS011;6306;47.134;15.344;2023-02-28T09:49:21;11.23;;;7.60;;
12482;SDS011;6306;47.134;15.344;2023-02-28T09:54:17;11.67;;;7.87;;
12482;SDS011;6306;47.134;15.344;2023-02-28T09:56:44;16.47;;;8.27;;
12482;SDS011;6306;47.134;15.344;2023-02-28T10:01:39;10.10;;;7.50;;
12482;SDS011;6306;47.134;15.344;2023-02-28T10:06:39;12.43;;;7.50;;
12482;SDS011;6306;47.134;15.344;2023-02-28T10:11:39;10.67;;;7.33;;
12482;SDS011;6306;47.134;15.344;2023-02-28T10:14:27;9.60;;;6.80;;
12482;SDS011;6306;47.134;15.344;2023-02-28T10:16:56;13.73;;;7.67;;
12482;SDS011;6306;47.134;15.344;2023-02-28T10:19:25;9.83;;;7.10;;
12482;SDS011;6306;47.134;15.344;2023-02-28T10:24:27;10.07;;;7.47;;
12482;SDS011;6306;47.134;15.344;2023-02-28T10:26:56;12.23;;;8.60;;
12482;SDS011;6306;47.134;15.344;2023-02-28T10:29:24;11.30;;;6.83;;
12482;SDS011;6306;47.134;15.344;2023-02-28T10:31:51;13.03;;;7.97;;
12482;SDS011;6306;47.134;15.344;2023-02-28T10:34:17;11.57;;;7.90;;
12482;SDS011;6306;47.134;15.344;2023-02-28T10:36:43;11.50;;;7.90;;
12482;SDS011;6306;47.134;15.344;2023-02-28T10:42:27;10.40;;;8.17;;
12482;SDS011;6306;47.134;15.344;2023-02-28T10:45:10;10.53;;;7.73;;
12482;SDS011;6306;47.134;15.344;2023-02-28T10:47:39;14.17;;;7.33;;
12482;SDS011;6306;47.134;15.344;2023-02-28T10:50:25;11.80;;;9.10;;
12482;SDS011;6306;47.134;15.344;2023-02-28T10:52:52;13.70;;;8.13;;
12482;SDS011;6306;47.134;15.344;2023-02-28T10:55:23;18.70;;;7.50;;
12482;SDS011;6306;47.134;15.344;2023-02-28T10:57:50;7.13;;;6.40;;
12482;SDS011;6306;47.134;15.344;2023-02-28T11:02:43;13.03;;;7.43;;
12482;SDS011;6306;47.134;15.344;2023-02-28T11:05:27;14.33;;;7.97;;
12482;SDS011;6306;47.134;15.344;2023-02-28T11:07:55;14.80;;;7.60;;
12482;SDS011;6306;47.134;15.344;2023-02-28T11:10:22;14.47;;;9.67;;
12482;SDS011;6306;47.134;15.344;2023-02-28T11:12:50;10.23;;;8.17;;
12482;SDS011;6306;47.134;15.344;2023-02-28T11:15:27;17.07;;;8.03;;
12482;SDS011;6306;47.134;15.344;2023-02-28T11:18:15;12.30;;;9.17;;
12482;SDS011;6306;47.134;15.344;2023-02-28T11:20:47;16.53;;;9.50;;
12482;SDS011;6306;47.134;15.344;2023-02-28T11:23:14;14.10;;;8.70;;
12482;SDS011;6306;47.134;15.344;2023-02-28T11:25:45;17.47;;;9.10;;
12482;SDS011;6306;47.134;15.344;2023-02-28T11:28:30;14.00;;;8.57;;
12482;SDS011;6306;47.134;15.344;2023-02-28T11:31:04;12.17;;;9.00;;
12482;SDS011;6306;47.134;15.344;2023-02-28T11:33:31;10.00;;;7.47;;
12482;SDS011;6306;47.134;15.344;2023-02-28T11:36:00;11.53;;;8.23;;
12482;SDS011;6306;47.134;15.344;2023-02-28T11:38:26;15.27;;;8.67;;
12482;SDS011;6306;47.134;15.344;2023-02-28T11:45:56;16.50;;;7.73;;
12482;SDS011;6306;47.134;15.344;2023-02-28T11:48:27;12.83;;;8.13;;
12482;SDS011;6306;47.134;15.344;2023-02-28T11:50:56;13.20;;;8.40;;
12482;SDS011;6306;47.134;15.344;2023-02-28T11:53:33;14.33;;;9.00;;
12482;SDS011;6306;47.134;15.344;2023-02-28T11:56:08;12.50;;;8.33;;
12482;SDS011;6306;47.134;15.344;2023-02-28T11:58:48;11.90;;;8.70;;
12482;SDS011;6306;47.134;15.344;2023-02-28T12:03:58;13.23;;;9.17;;
12482;SDS011;6306;47.134;15.344;2023-02-28T12:27:39;14.97;;;10.13;;
12482;SDS011;6306;47.134;15.344;2023-02-28T12:30:12;12.67;;;8.87;;
12482;SDS011;6306;47.134;15.344;2023-02-28T12:32:41;10.97;;;9.43;;
12482;SDS011;6306;47.134;15.344;2023-02-28T12:38:17;13.57;;;9.30;;
12482;SDS011;6306;47.134;15.344;2023-02-28T12:40:25;15.90;;;9.30;;
12482;SDS011;6306;47.134;15.344;2023-02-28T12:42:56;14.27;;;9.20;;
12482;SDS011;6306;47.134;15.344;2023-02-28T12:45:24;17.83;;;9.53;;
12482;SDS011;6306;47.134;15.344;2023-02-28T12:47:52;12.73;;;8.00;;
12482;SDS011;6306;47.134;15.344;2023-02-28T12:50:21;15.40;;;9.60;;
12482;SDS011;6306;47.134;15.344;2023-02-28T12:52:55;15.50;;;10.60;;
12482;SDS011;6306;47.134;15.344;2023-02-28T13:00:43;11.93;;;8.60;;
12482;SDS011;6306;47.134;15.344;2023-02-28T13:03:33;14.80;;;10.40;;
12482;SDS011;6306;47.134;15.344;2023-02-28T13:06:10;18.27;;;9.83;;
12482;SDS011;6306;47.134;15.344;2023-02-28T13:11:24;20.87;;;10.10;;
12482;SDS011;6306;47.134;15.344;2023-02-28T13:13:56;13.23;;;10.07;;
12482;SDS011;6306;47.134;15.344;2023-02-28T13:16:23;15.33;;;10.13;;
12482;SDS011;6306;47.134;15.344;2023-02-28T13:18:49;14.63;;;10.50;;
12482;SDS011;6306;47.134;15.344;2023-02-28T13:21:22;11.53;;;8.80;;
12482;SDS011;6306;47.134;15.344;2023-02-28T13:31:22;12.73;;;9.60;;
12482;SDS011;6306;47.134;15.344;2023-02-28T13:36:28;24.67;;;10.33;;
12482;SDS011;6306;47.134;15.344;2023-02-28T13:38:58;16.47;;;11.40;;
12482;SDS011;6306;47.134;15.344;2023-02-28T13:46:27;12.80;;;9.10;;
12482;SDS011;6306;47.134;15.344;2023-02-28T13:48:54;13.27;;;10.07;;
12482;SDS011;6306;47.134;15.344;2023-02-28T13:51:38;12.43;;;8.80;;
12482;SDS011;6306;47.134;15.344;2023-02-28T13:56:45;14.77;;;11.13;;
12482;SDS011;6306;47.134;15.344;2023-02-28T13:59:23;13.33;;;9.07;;
12482;SDS011;6306;47.134;15.344;2023-02-28T14:02:01;14.73;;;10.30;;
12482;SDS011;6306;47.134;15.344;2023-02-28T14:04:34;16.23;;;8.87;;
12482;SDS011;6306;47.134;15.344;2023-02-28T14:07:05;11.97;;;8.90;;
12482;SDS011;6306;47.134;15.344;2023-02-28T14:09:33;15.30;;;10.90;;
12482;SDS011;6306;47.134;15.344;2023-02-28T14:17:14;11.97;;;8.70;;
12482;SDS011;6306;47.134;15.344;2023-02-28T14:19:41;19.93;;;11.03;;
12482;SDS011;6306;47.134;15.344;2023-02-28T14:22:16;19.70;;;12.33;;
12482;SDS011;6306;47.134;15.344;2023-02-28T14:24:59;13.73;;;9.17;;
12482;SDS011;6306;47.134;15.344;2023-02-28T14:32:27;16.87;;;10.17;;
12482;SDS011;6306;47.134;15.344;2023-02-28T14:35:02;15.03;;;9.83;;
12482;SDS011;6306;47.134;15.344;2023-02-28T14:37:33;21.13;;;10.37;;
12482;SDS011;6306;47.134;15.344;2023-02-28T14:40:02;16.60;;;10.80;;
12482;SDS011;6306;47.134;15.344;2023-02-28T14:44:58;17.87;;;10.10;;
12482;SDS011;6306;47.134;15.344;2023-02-28T14:47:26;20.03;;;11.47;;
12482;SDS011;6306;47.134;15.344;2023-02-28T14:49:53;13.17;;;9.10;;
12482;SDS011;6306;47.134;15.344;2023-02-28T14:54:46;15.57;;;10.30;;
12482;SDS011;6306;47.134;15.344;2023-02-28T14:57:24;16.20;;;10.70;;
12482;SDS011;6306;47.134;15.344;2023-02-28T15:00:24;16.50;;;9.50;;
12482;SDS011;6306;47.134;15.344;2023-02-28T15:02:43;17.73;;;10.70;;
12482;SDS011;6306;47.134;15.344;2023-02-28T15:07:35;20.10;;;8.97;;
12482;SDS011;6306;47.134;15.344;2023-02-28T15:10:08;13.53;;;9.17;;
12482;SDS011;6306;47.134;15.344;2023-02-28T15:12:35;13.10;;;9.80;;
12482;SDS011;6306;47.134;15.344;2023-02-28T15:15:01;12.17;;;10.03;;
12482;SDS011;6306;47.134;15.344;2023-02-28T15:17:27;19.00;;;11.13;;
12482;SDS011;6306;47.134;15.344;2023-02-28T15:19:54;14.83;;;11.20;;
12482;SDS011;6306;47.134;15.344;2023-02-28T15:22:24;17.23;;;9.90;;
12482;SDS011;6306;47.134;15.344;2023-02-28T15:24:54;15.50;;;10.90;;
12482;SDS011;6306;47.134;15.344;2023-02-28T15:27:21;14.90;;;11.03;;
12482;SDS011;6306;47.134;15.344;2023-02-28T15:29:50;15.20;;;11.00;;
12482;SDS011;6306;47.134;15.344;2023-02-28T15:34:53;11.80;;;8.93;;
12482;SDS011;6306;47.134;15.344;2023-02-28T15:40:14;17.90;;;9.50;;
12482;SDS011;6306;47.134;15.344;2023-02-28T15:42:41;18.83;;;9.70;;
12482;SDS011;6306;47.134;15.344;2023-02-28T15:45:26;15.90;;;10.37;;
12482;SDS011;6306;47.134;15.344;2023-02-28T15:47:53;15.80;;;9.70;;
12482;SDS011;6306;47.134;15.344;2023-02-28T15:50:19;15.67;;;10.50;;
12482;SDS011;6306;47.134;15.344;2023-02-28T15:52:45;31.03;;;10.40;;
12482;SDS011;6306;47.134;15.344;2023-02-28T15:55:19;16.40;;;10.30;;
12482;SDS011;6306;47.134;15.344;2023-02-28T15:57:47;12.30;;;10.03;;
12482;SDS011;6306;47.134;15.344;2023-02-28T16:00:15;16.97;;;10.73;;
12482;SDS011;6306;47.134;15.344;2023-02-28T16:02:42;14.20;;;9.10;;
12482;SDS011;6306;47.134;15.344;2023-02-28T16:07:35;16.00;;;10.20;;
12482;SDS011;6306;47.134;15.344;2023-02-28T16:10:01;14.07;;;11.57;;
12482;SDS011;6306;47.134;15.344;2023-02-28T16:12:32;21.87;;;12.27;;
12482;SDS011;6306;47.134;15.344;2023-02-28T16:14:59;20.53;;;10.73;;
12482;SDS011;6306;47.134;15.344;2023-02-28T16:17:29;18.00;;;11.70;;
12482;SDS011;6306;47.134;15.344;2023-02-28T16:19:55;17.73;;;11.33;;
12482;SDS011;6306;47.134;15.344;2023-02-28T16:22:21;17.10;;;11.33;;
12482;SDS011;6306;47.134;15.344;2023-02-28T16:24:47;14.90;;;10.37;;
12482;SDS011;6306;47.134;15.344;2023-02-28T16:27:16;17.30;;;10.87;;
12482;SDS011;6306;47.134;15.344;2023-02-28T16:29:43;14.30;;;9.70;;
12482;SDS011;6306;47.134;15.344;2023-02-28T16:32:10;18.20;;;10.20;;
12482;SDS011;6306;47.134;15.344;2023-02-28T16:34:36;15.50;;;10.90;;
12482;SDS011;6306;47.134;15.344;2023-02-28T16:37:03;18.87;;;10.20;;
12482;SDS011;6306;47.134;15.344;2023-02-28T16:39:30;12.87;;;9.33;;
12482;SDS011;6306;47.134;15.344;2023-02-28T16:41:56;15.10;;;9.13;;
12482;SDS011;6306;47.134;15.344;2023-02-28T16:44:29;19.20;;;9.40;;
12482;SDS011;6306;47.134;15.344;2023-02-28T16:46:55;17.37;;;9.33;;
12482;SDS011;6306;47.134;15.344;2023-02-28T16:49:22;14.33;;;9.10;;
12482;SDS011;6306;47.134;15.344;2023-02-28T16:51:48;16.30;;;9.53;;
12482;SDS011;6306;47.134;15.344;2023-02-28T16:54:14;12.60;;;9.63;;
12482;SDS011;6306;47.134;15.344;2023-02-28T16:56:41;21.43;;;9.93;;
12482;SDS011;6306;47.134;15.344;2023-02-28T16:59:08;13.63;;;10.67;;
12482;SDS011;6306;47.134;15.344;2023-02-28T17:01:35;12.50;;;9.10;;